sensor_id;sensor_type;location;lat;lon;timestamp;temperature;humidity
66035;HTU21D;52805;51.074;5.842;2023-02-28T00:02:20;3.01;66.00
66035;HTU21D;52805;51.074;5.842;2023-02-28T00:04:46;2.99;66.01
66035;HTU21D;52805;51.074;5.842;2023-02-28T00:07:27;2.98;66.04
66035;HTU21D;52805;51.074;5.842;2023-02-28T00:09:53;2.96;66.16
66035;HTU21D;52805;51.074;5.842;2023-02-28T00:12:19;2.96;66.24
66035;HTU21D;52805;51.074;5.842;2023-02-28T00:14:44;2.93;66.24
66035;HTU21D;52805;51.074;5.842;2023-02-28T00:17:10;2.90;66.33
66035;HTU21D;52805;51.074;5.842;2023-02-28T00:19:36;2.88;66.40
66035;HTU21D;52805;51.074;5.842;2023-02-28T00:22:01;2.85;66.46
66035;HTU21D;52805;51.074;5.842;2023-02-28T00:24:27;2.83;66.56
66035;HTU21D;52805;51.074;5.842;2023-02-28T00:26:53;2.80;66.62
66035;HTU21D;52805;51.074;5.842;2023-02-28T00:29:18;2.82;66.48
66035;HTU21D;52805;51.074;5.842;2023-02-28T00:31:44;2.78;66.62
66035;HTU21D;52805;51.074;5.842;2023-02-28T00:34:10;2.78;66.68
66035;HTU21D;52805;51.074;5.842;2023-02-28T00:36:36;2.75;66.63
66035;HTU21D;52805;51.074;5.842;2023-02-28T00:39:03;2.75;66.62
66035;HTU21D;52805;51.074;5.842;2023-02-28T00:41:29;2.71;66.83
66035;HTU21D;52805;51.074;5.842;2023-02-28T00:43:55;2.70;67.00
66035;HTU21D;52805;51.074;5.842;2023-02-28T00:46:22;2.69;67.02
66035;HTU21D;52805;51.074;5.842;2023-02-28T00:48:49;2.66;67.15
66035;HTU21D;52805;51.074;5.842;2023-02-28T00:51:15;2.65;67.19
66035;HTU21D;52805;51.074;5.842;2023-02-28T00:53:41;2.66;67.15
66035;HTU21D;52805;51.074;5.842;2023-02-28T00:56:06;2.62;67.17
66035;HTU21D;52805;51.074;5.842;2023-02-28T00:58:32;2.62;67.19
66035;HTU21D;52805;51.074;5.842;2023-02-28T01:00:58;2.61;67.33
66035;HTU21D;52805;51.074;5.842;2023-02-28T01:03:24;2.58;67.31
66035;HTU21D;52805;51.074;5.842;2023-02-28T01:05:50;2.54;67.43
66035;HTU21D;52805;51.074;5.842;2023-02-28T01:08:16;2.53;67.55
66035;HTU21D;52805;51.074;5.842;2023-02-28T01:10:42;2.53;67.61
66035;HTU21D;52805;51.074;5.842;2023-02-28T01:13:08;2.49;67.66
66035;HTU21D;52805;51.074;5.842;2023-02-28T01:15:36;2.50;67.59
66035;HTU21D;52805;51.074;5.842;2023-02-28T01:18:04;2.49;67.72
66035;HTU21D;52805;51.074;5.842;2023-02-28T01:20:30;2.46;67.70
66035;HTU21D;52805;51.074;5.842;2023-02-28T01:22:56;2.43;67.81
66035;HTU21D;52805;51.074;5.842;2023-02-28T01:25:22;2.43;67.84
66035;HTU21D;52805;51.074;5.842;2023-02-28T01:27:47;2.41;67.83
66035;HTU21D;52805;51.074;5.842;2023-02-28T01:30:13;2.38;67.90
66035;HTU21D;52805;51.074;5.842;2023-02-28T01:32:39;2.39;67.85
66035;HTU21D;52805;51.074;5.842;2023-02-28T01:35:05;2.37;67.95
66035;HTU21D;52805;51.074;5.842;2023-02-28T01:37:31;2.35;68.02
66035;HTU21D;52805;51.074;5.842;2023-02-28T01:39:57;2.34;68.10
66035;HTU21D;52805;51.074;5.842;2023-02-28T01:42:24;2.30;68.12
66035;HTU21D;52805;51.074;5.842;2023-02-28T01:45:15;2.29;68.23
66035;HTU21D;52805;51.074;5.842;2023-02-28T01:47:43;2.25;68.33
66035;HTU21D;52805;51.074;5.842;2023-02-28T01:50:16;2.21;68.41
66035;HTU21D;52805;51.074;5.842;2023-02-28T01:52:46;2.17;68.46
66035;HTU21D;52805;51.074;5.842;2023-02-28T01:55:13;2.15;68.49
66035;HTU21D;52805;51.074;5.842;2023-02-28T01:57:48;2.12;68.67
66035;HTU21D;52805;51.074;5.842;2023-02-28T02:00:23;2.11;68.70
66035;HTU21D;52805;51.074;5.842;2023-02-28T02:02:52;2.09;68.76
66035;HTU21D;52805;51.074;5.842;2023-02-28T02:05:25;2.08;68.78
66035;HTU21D;52805;51.074;5.842;2023-02-28T02:07:58;2.09;68.85
66035;HTU21D;52805;51.074;5.842;2023-02-28T02:10:43;2.07;68.91
66035;HTU21D;52805;51.074;5.842;2023-02-28T02:21:03;1.93;69.17
66035;HTU21D;52805;51.074;5.842;2023-02-28T02:44:00;1.86;69.67
66035;HTU21D;52805;51.074;5.842;2023-02-28T02:46:44;1.86;69.63
66035;HTU21D;52805;51.074;5.842;2023-02-28T02:49:26;1.87;69.62
66035;HTU21D;52805;51.074;5.842;2023-02-28T02:51:57;1.87;69.64
66035;HTU21D;52805;51.074;5.842;2023-02-28T02:54:30;1.86;69.68
66035;HTU21D;52805;51.074;5.842;2023-02-28T02:57:02;1.85;69.75
66035;HTU21D;52805;51.074;5.842;2023-02-28T02:59:30;1.84;69.81
66035;HTU21D;52805;51.074;5.842;2023-02-28T03:02:00;1.84;69.92
66035;HTU21D;52805;51.074;5.842;2023-02-28T03:04:32;1.84;69.97
66035;HTU21D;52805;51.074;5.842;2023-02-28T03:06:58;1.86;69.97
66035;HTU21D;52805;51.074;5.842;2023-02-28T03:09:26;1.82;70.02
66035;HTU21D;52805;51.074;5.842;2023-02-28T03:11:55;1.81;70.00
66035;HTU21D;52805;51.074;5.842;2023-02-28T03:19:55;1.78;70.18
66035;HTU21D;52805;51.074;5.842;2023-02-28T03:25:29;1.76;70.32
66035;HTU21D;52805;51.074;5.842;2023-02-28T03:31:00;1.75;70.32
66035;HTU21D;52805;51.074;5.842;2023-02-28T03:33:42;1.76;70.45
66035;HTU21D;52805;51.074;5.842;2023-02-28T03:36:18;1.80;70.36
66035;HTU21D;52805;51.074;5.842;2023-02-28T03:38:54;1.82;70.30
66035;HTU21D;52805;51.074;5.842;2023-02-28T03:41:29;1.85;70.20
66035;HTU21D;52805;51.074;5.842;2023-02-28T03:44:19;1.85;70.21
66035;HTU21D;52805;51.074;5.842;2023-02-28T03:46:58;1.83;70.29
66035;HTU21D;52805;51.074;5.842;2023-02-28T03:49:32;1.82;70.42
66035;HTU21D;52805;51.074;5.842;2023-02-28T03:52:03;1.78;70.45
66035;HTU21D;52805;51.074;5.842;2023-02-28T03:54:35;1.77;70.58
66035;HTU21D;52805;51.074;5.842;2023-02-28T03:57:11;1.73;70.68
66035;HTU21D;52805;51.074;5.842;2023-02-28T03:59:47;1.70;70.75
66035;HTU21D;52805;51.074;5.842;2023-02-28T04:02:13;1.68;70.84
66035;HTU21D;52805;51.074;5.842;2023-02-28T04:04:39;1.66;70.89
66035;HTU21D;52805;51.074;5.842;2023-02-28T04:07:14;1.63;70.93
66035;HTU21D;52805;51.074;5.842;2023-02-28T04:09:40;1.63;70.92
66035;HTU21D;52805;51.074;5.842;2023-02-28T04:12:06;1.60;70.91
66035;HTU21D;52805;51.074;5.842;2023-02-28T04:14:32;1.57;70.93
66035;HTU21D;52805;51.074;5.842;2023-02-28T04:16:58;1.56;70.93
66035;HTU21D;52805;51.074;5.842;2023-02-28T04:19:24;1.53;70.99
66035;HTU21D;52805;51.074;5.842;2023-02-28T04:21:52;1.50;70.98
66035;HTU21D;52805;51.074;5.842;2023-02-28T04:24:21;1.47;71.03
66035;HTU21D;52805;51.074;5.842;2023-02-28T04:26:49;1.46;71.16
66035;HTU21D;52805;51.074;5.842;2023-02-28T04:29:26;1.45;71.22
66035;HTU21D;52805;51.074;5.842;2023-02-28T04:31:53;1.39;71.28
66035;HTU21D;52805;51.074;5.842;2023-02-28T04:34:20;1.40;71.30
66035;HTU21D;52805;51.074;5.842;2023-02-28T04:36:47;1.37;71.32
66035;HTU21D;52805;51.074;5.842;2023-02-28T04:39:15;1.37;71.25
66035;HTU21D;52805;51.074;5.842;2023-02-28T04:41:41;1.35;71.35
66035;HTU21D;52805;51.074;5.842;2023-02-28T04:44:06;1.34;71.42
66035;HTU21D;52805;51.074;5.842;2023-02-28T04:46:32;1.33;71.45
66035;HTU21D;52805;51.074;5.842;2023-02-28T04:48:58;1.33;71.45
66035;HTU21D;52805;51.074;5.842;2023-02-28T04:51:24;1.34;71.45
66035;HTU21D;52805;51.074;5.842;2023-02-28T04:53:50;1.31;71.48
66035;HTU21D;52805;51.074;5.842;2023-02-28T04:56:17;1.28;71.52
66035;HTU21D;52805;51.074;5.842;2023-02-28T04:58:44;1.25;71.61
66035;HTU21D;52805;51.074;5.842;2023-02-28T05:03:47;1.24;71.65
66035;HTU21D;52805;51.074;5.842;2023-02-28T05:06:14;1.25;71.58
66035;HTU21D;52805;51.074;5.842;2023-02-28T05:08:40;1.25;71.54
66035;HTU21D;52805;51.074;5.842;2023-02-28T05:11:15;1.24;71.61
66035;HTU21D;52805;51.074;5.842;2023-02-28T05:13:41;1.25;71.61
66035;HTU21D;52805;51.074;5.842;2023-02-28T05:16:07;1.25;71.61
66035;HTU21D;52805;51.074;5.842;2023-02-28T05:18:32;1.27;71.42
66035;HTU21D;52805;51.074;5.842;2023-02-28T05:20:59;1.26;71.44
66035;HTU21D;52805;51.074;5.842;2023-02-28T05:23:27;1.25;71.44
66035;HTU21D;52805;51.074;5.842;2023-02-28T05:25:53;1.24;71.51
66035;HTU21D;52805;51.074;5.842;2023-02-28T05:28:20;1.23;71.52
66035;HTU21D;52805;51.074;5.842;2023-02-28T05:30:46;1.24;71.62
66035;HTU21D;52805;51.074;5.842;2023-02-28T05:33:13;1.23;71.66
66035;HTU21D;52805;51.074;5.842;2023-02-28T05:35:40;1.23;71.61
66035;HTU21D;52805;51.074;5.842;2023-02-28T05:38:06;1.26;71.49
66035;HTU21D;52805;51.074;5.842;2023-02-28T05:40:32;1.25;71.32
66035;HTU21D;52805;51.074;5.842;2023-02-28T05:42:57;1.26;71.28
66035;HTU21D;52805;51.074;5.842;2023-02-28T05:45:23;1.25;71.16
66035;HTU21D;52805;51.074;5.842;2023-02-28T05:47:53;1.27;71.17
66035;HTU21D;52805;51.074;5.842;2023-02-28T05:50:19;1.24;71.07
66035;HTU21D;52805;51.074;5.842;2023-02-28T05:52:49;1.27;70.81
66035;HTU21D;52805;51.074;5.842;2023-02-28T05:55:15;1.24;70.74
66035;HTU21D;52805;51.074;5.842;2023-02-28T05:57:41;1.25;70.76
66035;HTU21D;52805;51.074;5.842;2023-02-28T06:00:08;1.26;70.42
66035;HTU21D;52805;51.074;5.842;2023-02-28T06:02:39;1.23;70.40
66035;HTU21D;52805;51.074;5.842;2023-02-28T06:05:13;1.23;70.30
66035;HTU21D;52805;51.074;5.842;2023-02-28T06:07:39;1.20;70.32
66035;HTU21D;52805;51.074;5.842;2023-02-28T06:10:05;1.19;70.31
66035;HTU21D;52805;51.074;5.842;2023-02-28T06:12:31;1.19;70.32
66035;HTU21D;52805;51.074;5.842;2023-02-28T06:14:57;1.17;70.27
66035;HTU21D;52805;51.074;5.842;2023-02-28T06:17:23;1.16;70.29
66035;HTU21D;52805;51.074;5.842;2023-02-28T06:19:48;1.14;70.35
66035;HTU21D;52805;51.074;5.842;2023-02-28T06:22:14;1.16;70.32
66035;HTU21D;52805;51.074;5.842;2023-02-28T06:24:40;1.16;70.35
66035;HTU21D;52805;51.074;5.842;2023-02-28T06:27:05;1.18;69.99
66035;HTU21D;52805;51.074;5.842;2023-02-28T06:29:35;1.14;70.07
66035;HTU21D;52805;51.074;5.842;2023-02-28T06:32:01;1.13;70.06
66035;HTU21D;52805;51.074;5.842;2023-02-28T06:34:27;1.12;70.03
66035;HTU21D;52805;51.074;5.842;2023-02-28T06:36:53;1.12;70.15
66035;HTU21D;52805;51.074;5.842;2023-02-28T06:39:19;1.11;70.19
66035;HTU21D;52805;51.074;5.842;2023-02-28T06:41:45;1.09;70.29
66035;HTU21D;52805;51.074;5.842;2023-02-28T06:44:15;1.11;70.29
66035;HTU21D;52805;51.074;5.842;2023-02-28T06:46:43;1.12;70.26
66035;HTU21D;52805;51.074;5.842;2023-02-28T06:49:10;1.14;69.98
66035;HTU21D;52805;51.074;5.842;2023-02-28T06:51:38;1.14;69.85
66035;HTU21D;52805;51.074;5.842;2023-02-28T06:54:04;1.12;69.81
66035;HTU21D;52805;51.074;5.842;2023-02-28T06:56:31;1.12;69.95
66035;HTU21D;52805;51.074;5.842;2023-02-28T06:58:56;1.11;69.95
66035;HTU21D;52805;51.074;5.842;2023-02-28T07:01:22;1.10;70.00
66035;HTU21D;52805;51.074;5.842;2023-02-28T07:03:50;1.16;69.96
66035;HTU21D;52805;51.074;5.842;2023-02-28T07:06:21;1.17;69.70
66035;HTU21D;52805;51.074;5.842;2023-02-28T07:08:48;1.17;69.79
66035;HTU21D;52805;51.074;5.842;2023-02-28T07:11:15;1.20;69.81
66035;HTU21D;52805;51.074;5.842;2023-02-28T07:13:41;1.22;69.81
66035;HTU21D;52805;51.074;5.842;2023-02-28T07:16:10;1.23;69.84
66035;HTU21D;52805;51.074;5.842;2023-02-28T07:18:37;1.26;69.83
66035;HTU21D;52805;51.074;5.842;2023-02-28T07:21:05;1.29;69.84
66035;HTU21D;52805;51.074;5.842;2023-02-28T07:23:32;1.35;69.69
66035;HTU21D;52805;51.074;5.842;2023-02-28T07:25:58;1.40;69.64
66035;HTU21D;52805;51.074;5.842;2023-02-28T07:28:25;1.43;69.50
66035;HTU21D;52805;51.074;5.842;2023-02-28T07:30:50;1.47;69.45
66035;HTU21D;52805;51.074;5.842;2023-02-28T07:33:16;1.49;69.49
66035;HTU21D;52805;51.074;5.842;2023-02-28T07:35:42;1.53;69.45
66035;HTU21D;52805;51.074;5.842;2023-02-28T07:38:08;1.61;69.17
66035;HTU21D;52805;51.074;5.842;2023-02-28T07:40:35;1.60;69.23
66035;HTU21D;52805;51.074;5.842;2023-02-28T07:43:02;1.64;69.09
66035;HTU21D;52805;51.074;5.842;2023-02-28T07:45:29;1.69;68.89
66035;HTU21D;52805;51.074;5.842;2023-02-28T07:47:57;1.73;68.87
66035;HTU21D;52805;51.074;5.842;2023-02-28T07:50:23;1.77;68.85
66035;HTU21D;52805;51.074;5.842;2023-02-28T07:52:49;1.81;68.84
66035;HTU21D;52805;51.074;5.842;2023-02-28T07:55:14;1.83;68.81
66035;HTU21D;52805;51.074;5.842;2023-02-28T07:57:42;1.88;68.70
66035;HTU21D;52805;51.074;5.842;2023-02-28T08:00:10;1.95;68.30
66035;HTU21D;52805;51.074;5.842;2023-02-28T08:02:39;1.98;68.33
66035;HTU21D;52805;51.074;5.842;2023-02-28T08:05:06;2.06;68.15
66035;HTU21D;52805;51.074;5.842;2023-02-28T08:07:32;2.12;67.60
66035;HTU21D;52805;51.074;5.842;2023-02-28T08:09:59;2.14;67.66
66035;HTU21D;52805;51.074;5.842;2023-02-28T08:12:24;2.21;67.66
66035;HTU21D;52805;51.074;5.842;2023-02-28T08:14:50;2.28;67.21
66035;HTU21D;52805;51.074;5.842;2023-02-28T08:17:16;2.32;66.95
66035;HTU21D;52805;51.074;5.842;2023-02-28T08:19:42;2.39;66.79
66035;HTU21D;52805;51.074;5.842;2023-02-28T08:22:07;2.50;65.98
66035;HTU21D;52805;51.074;5.842;2023-02-28T08:24:33;2.53;66.01
66035;HTU21D;52805;51.074;5.842;2023-02-28T08:26:59;2.66;65.40
66035;HTU21D;52805;51.074;5.842;2023-02-28T08:29:24;2.67;65.02
66035;HTU21D;52805;51.074;5.842;2023-02-28T08:31:50;2.68;65.22
66035;HTU21D;52805;51.074;5.842;2023-02-28T08:34:16;2.82;64.56
66035;HTU21D;52805;51.074;5.842;2023-02-28T08:36:42;2.83;64.67
66035;HTU21D;52805;51.074;5.842;2023-02-28T08:39:12;2.89;64.50
66035;HTU21D;52805;51.074;5.842;2023-02-28T08:41:37;2.96;64.28
66035;HTU21D;52805;51.074;5.842;2023-02-28T08:44:04;3.04;63.82
66035;HTU21D;52805;51.074;5.842;2023-02-28T08:46:29;3.12;63.27
66035;HTU21D;52805;51.074;5.842;2023-02-28T08:48:56;3.19;62.83
66035;HTU21D;52805;51.074;5.842;2023-02-28T08:51:26;3.19;62.76
66035;HTU21D;52805;51.074;5.842;2023-02-28T08:53:53;3.27;62.73
66035;HTU21D;52805;51.074;5.842;2023-02-28T08:56:19;3.33;62.79
66035;HTU21D;52805;51.074;5.842;2023-02-28T08:58:46;3.42;62.18
66035;HTU21D;52805;51.074;5.842;2023-02-28T09:01:15;3.53;61.61
66035;HTU21D;52805;51.074;5.842;2023-02-28T09:03:42;3.52;61.63
66035;HTU21D;52805;51.074;5.842;2023-02-28T09:06:10;3.56;61.64
66035;HTU21D;52805;51.074;5.842;2023-02-28T09:08:36;3.62;60.89
66035;HTU21D;52805;51.074;5.842;2023-02-28T09:11:02;3.67;60.76
66035;HTU21D;52805;51.074;5.842;2023-02-28T09:13:29;3.76;60.20
66035;HTU21D;52805;51.074;5.842;2023-02-28T09:15:58;3.85;59.48
66035;HTU21D;52805;51.074;5.842;2023-02-28T09:18:25;3.89;59.21
66035;HTU21D;52805;51.074;5.842;2023-02-28T09:20:51;4.03;58.15
66035;HTU21D;52805;51.074;5.842;2023-02-28T09:23:17;4.06;57.66
66035;HTU21D;52805;51.074;5.842;2023-02-28T09:26:01;4.09;57.57
66035;HTU21D;52805;51.074;5.842;2023-02-28T09:28:26;4.16;57.72
66035;HTU21D;52805;51.074;5.842;2023-02-28T09:30:54;4.29;56.97
66035;HTU21D;52805;51.074;5.842;2023-02-28T09:33:21;4.32;56.42
66035;HTU21D;52805;51.074;5.842;2023-02-28T09:35:48;4.41;55.35
66035;HTU21D;52805;51.074;5.842;2023-02-28T09:38:15;4.42;55.26
66035;HTU21D;52805;51.074;5.842;2023-02-28T09:40:55;4.52;54.87
66035;HTU21D;52805;51.074;5.842;2023-02-28T09:43:25;4.57;54.27
66035;HTU21D;52805;51.074;5.842;2023-02-28T09:46:00;4.65;53.37
66035;HTU21D;52805;51.074;5.842;2023-02-28T09:48:33;4.75;52.02
66035;HTU21D;52805;51.074;5.842;2023-02-28T09:51:25;4.74;51.77
66035;HTU21D;52805;51.074;5.842;2023-02-28T09:53:53;4.73;51.94
66035;HTU21D;52805;51.074;5.842;2023-02-28T09:56:24;4.80;51.43
66035;HTU21D;52805;51.074;5.842;2023-02-28T09:58:52;4.83;51.62
66035;HTU21D;52805;51.074;5.842;2023-02-28T10:07:01;5.01;50.43
66035;HTU21D;52805;51.074;5.842;2023-02-28T10:09:33;5.07;50.18
66035;HTU21D;52805;51.074;5.842;2023-02-28T10:12:04;5.17;50.24
66035;HTU21D;52805;51.074;5.842;2023-02-28T10:14:33;5.28;49.57
66035;HTU21D;52805;51.074;5.842;2023-02-28T10:17:13;5.36;49.79
66035;HTU21D;52805;51.074;5.842;2023-02-28T10:19:45;5.41;49.44
66035;HTU21D;52805;51.074;5.842;2023-02-28T10:22:33;5.51;48.92
66035;HTU21D;52805;51.074;5.842;2023-02-28T10:25:00;5.50;48.77
66035;HTU21D;52805;51.074;5.842;2023-02-28T10:27:32;5.59;48.14
66035;HTU21D;52805;51.074;5.842;2023-02-28T10:30:00;5.61;48.23
66035;HTU21D;52805;51.074;5.842;2023-02-28T10:32:33;5.63;48.26
66035;HTU21D;52805;51.074;5.842;2023-02-28T10:35:14;5.75;47.17
66035;HTU21D;52805;51.074;5.842;2023-02-28T10:37:44;5.75;46.70
66035;HTU21D;52805;51.074;5.842;2023-02-28T10:43:05;5.79;46.48
66035;HTU21D;52805;51.074;5.842;2023-02-28T10:45:34;5.87;46.01
66035;HTU21D;52805;51.074;5.842;2023-02-28T10:48:38;5.81;46.53
66035;HTU21D;52805;51.074;5.842;2023-02-28T10:51:08;5.97;45.77
66035;HTU21D;52805;51.074;5.842;2023-02-28T10:53:54;6.00;46.03
66035;HTU21D;52805;51.074;5.842;2023-02-28T10:56:22;6.07;45.54
66035;HTU21D;52805;51.074;5.842;2023-02-28T10:59:08;6.12;45.48
66035;HTU21D;52805;51.074;5.842;2023-02-28T11:01:47;6.17;45.72
66035;HTU21D;52805;51.074;5.842;2023-02-28T11:07:20;6.33;45.53
66035;HTU21D;52805;51.074;5.842;2023-02-28T11:09:49;6.34;45.47
66035;HTU21D;52805;51.074;5.842;2023-02-28T11:12:37;6.42;45.31
66035;HTU21D;52805;51.074;5.842;2023-02-28T11:15:18;6.54;44.87
66035;HTU21D;52805;51.074;5.842;2023-02-28T11:18:21;6.61;44.28
66035;HTU21D;52805;51.074;5.842;2023-02-28T11:20:51;6.69;44.25
66035;HTU21D;52805;51.074;5.842;2023-02-28T11:23:20;6.75;44.00
66035;HTU21D;52805;51.074;5.842;2023-02-28T11:25:52;6.80;43.59
66035;HTU21D;52805;51.074;5.842;2023-02-28T11:28:28;6.78;43.60
66035;HTU21D;52805;51.074;5.842;2023-02-28T11:38:59;6.74;43.20
66035;HTU21D;52805;51.074;5.842;2023-02-28T11:47:09;7.00;42.72
66035;HTU21D;52805;51.074;5.842;2023-02-28T11:52:47;6.96;43.35
66035;HTU21D;52805;51.074;5.842;2023-02-28T11:55:42;6.98;42.69
66035;HTU21D;52805;51.074;5.842;2023-02-28T11:58:27;7.09;42.31
66035;HTU21D;52805;51.074;5.842;2023-02-28T12:19:48;8.08;42.10
66035;HTU21D;52805;51.074;5.842;2023-02-28T12:22:22;8.01;42.07
66035;HTU21D;52805;51.074;5.842;2023-02-28T12:27:48;8.01;41.99
66035;HTU21D;52805;51.074;5.842;2023-02-28T12:30:31;8.14;41.93
66035;HTU21D;52805;51.074;5.842;2023-02-28T12:35:56;8.49;41.95
66035;HTU21D;52805;51.074;5.842;2023-02-28T12:38:43;8.72;41.77
66035;HTU21D;52805;51.074;5.842;2023-02-28T12:41:17;8.89;41.49
66035;HTU21D;52805;51.074;5.842;2023-02-28T12:44:14;9.04;40.84
66035;HTU21D;52805;51.074;5.842;2023-02-28T12:46:50;9.10;40.66
66035;HTU21D;52805;51.074;5.842;2023-02-28T12:49:23;9.04;40.64
66035;HTU21D;52805;51.074;5.842;2023-02-28T12:51:52;8.86;40.68
66035;HTU21D;52805;51.074;5.842;2023-02-28T13:08:16;7.86;41.42
66035;HTU21D;52805;51.074;5.842;2023-02-28T13:10:48;7.73;42.00
66035;HTU21D;52805;51.074;5.842;2023-02-28T13:13:23;7.82;42.23
66035;HTU21D;52805;51.074;5.842;2023-02-28T13:16:10;7.93;41.94
66035;HTU21D;52805;51.074;5.842;2023-02-28T13:18:44;7.93;41.78
66035;HTU21D;52805;51.074;5.842;2023-02-28T13:21:30;8.05;41.58
66035;HTU21D;52805;51.074;5.842;2023-02-28T13:24:08;8.05;41.39
66035;HTU21D;52805;51.074;5.842;2023-02-28T13:29:36;8.17;41.14
66035;HTU21D;52805;51.074;5.842;2023-02-28T13:34:28;8.28;41.07
66035;HTU21D;52805;51.074;5.842;2023-02-28T13:39:55;8.27;41.40
66035;HTU21D;52805;51.074;5.842;2023-02-28T13:42:22;8.32;41.74
66035;HTU21D;52805;51.074;5.842;2023-02-28T13:47:36;8.37;41.57
66035;HTU21D;52805;51.074;5.842;2023-02-28T13:58:53;8.72;41.72
66035;HTU21D;52805;51.074;5.842;2023-02-28T14:07:28;8.87;40.54
66035;HTU21D;52805;51.074;5.842;2023-02-28T14:10:02;8.79;40.82
66035;HTU21D;52805;51.074;5.842;2023-02-28T14:20:47;9.00;40.31
66035;HTU21D;52805;51.074;5.842;2023-02-28T14:23:22;8.89;39.91
66035;HTU21D;52805;51.074;5.842;2023-02-28T14:26:23;8.80;40.39
66035;HTU21D;52805;51.074;5.842;2023-02-28T14:32:13;8.87;39.62
66035;HTU21D;52805;51.074;5.842;2023-02-28T14:37:33;8.79;40.01
66035;HTU21D;52805;51.074;5.842;2023-02-28T14:40:02;8.73;40.30
66035;HTU21D;52805;51.074;5.842;2023-02-28T14:42:37;8.75;39.97
66035;HTU21D;52805;51.074;5.842;2023-02-28T14:45:18;8.70;40.01
66035;HTU21D;52805;51.074;5.842;2023-02-28T14:47:44;8.75;40.17
66035;HTU21D;52805;51.074;5.842;2023-02-28T14:50:32;8.77;40.28
66035;HTU21D;52805;51.074;5.842;2023-02-28T14:52:59;8.77;40.03
66035;HTU21D;52805;51.074;5.842;2023-02-28T14:55:31;8.85;39.93
66035;HTU21D;52805;51.074;5.842;2023-02-28T14:58:31;8.80;40.01
66035;HTU21D;52805;51.074;5.842;2023-02-28T15:00:59;8.89;39.65
66035;HTU21D;52805;51.074;5.842;2023-02-28T15:03:38;8.77;39.97
66035;HTU21D;52805;51.074;5.842;2023-02-28T15:06:11;8.78;39.82
66035;HTU21D;52805;51.074;5.842;2023-02-28T15:08:38;8.74;39.87
66035;HTU21D;52805;51.074;5.842;2023-02-28T15:11:08;8.68;40.29
66035;HTU21D;52805;51.074;5.842;2023-02-28T15:13:51;8.72;40.01
66035;HTU21D;52805;51.074;5.842;2023-02-28T15:16:21;8.74;40.17
66035;HTU21D;52805;51.074;5.842;2023-02-28T15:18:51;8.66;40.17
66035;HTU21D;52805;51.074;5.842;2023-02-28T15:21:18;8.65;40.33
66035;HTU21D;52805;51.074;5.842;2023-02-28T15:24:13;8.70;40.52
66035;HTU21D;52805;51.074;5.842;2023-02-28T15:26:40;8.70;40.44
66035;HTU21D;52805;51.074;5.842;2023-02-28T15:29:23;8.67;40.57
66035;HTU21D;52805;51.074;5.842;2023-02-28T15:31:55;8.65;40.84
66035;HTU21D;52805;51.074;5.842;2023-02-28T15:34:36;8.68;40.89
66035;HTU21D;52805;51.074;5.842;2023-02-28T15:39:57;8.73;40.56
66035;HTU21D;52805;51.074;5.842;2023-02-28T15:42:28;8.71;40.37
66035;HTU21D;52805;51.074;5.842;2023-02-28T15:44:54;8.61;40.43
66035;HTU21D;52805;51.074;5.842;2023-02-28T15:47:23;8.56;40.69
66035;HTU21D;52805;51.074;5.842;2023-02-28T15:49:50;8.57;40.94
66035;HTU21D;52805;51.074;5.842;2023-02-28T15:52:41;8.59;41.08
66035;HTU21D;52805;51.074;5.842;2023-02-28T15:55:27;8.59;41.26
66035;HTU21D;52805;51.074;5.842;2023-02-28T15:58:00;8.64;41.26
66035;HTU21D;52805;51.074;5.842;2023-02-28T16:00:29;8.63;41.23
66035;HTU21D;52805;51.074;5.842;2023-02-28T16:02:55;8.59;41.07
66035;HTU21D;52805;51.074;5.842;2023-02-28T16:08:13;8.45;41.02
66035;HTU21D;52805;51.074;5.842;2023-02-28T16:10:39;8.37;41.32
66035;HTU21D;52805;51.074;5.842;2023-02-28T16:13:05;8.36;41.74
66035;HTU21D;52805;51.074;5.842;2023-02-28T16:15:37;8.42;41.64
66035;HTU21D;52805;51.074;5.842;2023-02-28T16:18:11;8.38;41.82
66035;HTU21D;52805;51.074;5.842;2023-02-28T16:20:37;8.38;41.68
66035;HTU21D;52805;51.074;5.842;2023-02-28T16:23:03;8.35;41.68
66035;HTU21D;52805;51.074;5.842;2023-02-28T16:25:40;8.34;41.27
66035;HTU21D;52805;51.074;5.842;2023-02-28T16:28:23;8.23;41.65
66035;HTU21D;52805;51.074;5.842;2023-02-28T16:30:54;8.17;41.91
66035;HTU21D;52805;51.074;5.842;2023-02-28T16:33:19;8.17;42.18
66035;HTU21D;52805;51.074;5.842;2023-02-28T16:35:45;8.19;42.22
66035;HTU21D;52805;51.074;5.842;2023-02-28T16:38:11;8.14;42.26
66035;HTU21D;52805;51.074;5.842;2023-02-28T16:40:37;8.07;42.38
66035;HTU21D;52805;51.074;5.842;2023-02-28T16:43:16;7.99;42.36
66035;HTU21D;52805;51.074;5.842;2023-02-28T16:45:43;7.90;42.51
66035;HTU21D;52805;51.074;5.842;2023-02-28T16:48:14;7.83;42.85
66035;HTU21D;52805;51.074;5.842;2023-02-28T16:50:41;7.76;43.10
66035;HTU21D;52805;51.074;5.842;2023-02-28T16:53:07;7.68;43.11
66035;HTU21D;52805;51.074;5.842;2023-02-28T16:55:34;7.52;43.42
66035;HTU21D;52805;51.074;5.842;2023-02-28T16:58:01;7.42;43.85
66035;HTU21D;52805;51.074;5.842;2023-02-28T17:00:30;7.32;44.22
66035;HTU21D;52805;51.074;5.842;2023-02-28T17:02:57;7.25;44.57
66035;HTU21D;52805;51.074;5.842;2023-02-28T17:05:26;7.16;44.87
66035;HTU21D;52805;51.074;5.842;2023-02-28T17:07:53;7.10;45.12
66035;HTU21D;52805;51.074;5.842;2023-02-28T17:10:22;7.03;45.28
66035;HTU21D;52805;51.074;5.842;2023-02-28T17:12:48;6.94;45.49
66035;HTU21D;52805;51.074;5.842;2023-02-28T17:15:16;6.89;45.72
66035;HTU21D;52805;51.074;5.842;2023-02-28T17:17:43;6.81;45.90
66035;HTU21D;52805;51.074;5.842;2023-02-28T17:20:21;6.74;46.16
66035;HTU21D;52805;51.074;5.842;2023-02-28T17:22:53;6.69;46.44
66035;HTU21D;52805;51.074;5.842;2023-02-28T17:25:20;6.63;46.70
66035;HTU21D;52805;51.074;5.842;2023-02-28T17:27:46;6.58;46.96
66035;HTU21D;52805;51.074;5.842;2023-02-28T17:30:21;6.54;47.20
66035;HTU21D;52805;51.074;5.842;2023-02-28T17:32:47;6.50;47.37
66035;HTU21D;52805;51.074;5.842;2023-02-28T17:35:13;6.46;47.62
66035;HTU21D;52805;51.074;5.842;2023-02-28T17:37:41;6.45;47.83
66035;HTU21D;52805;51.074;5.842;2023-02-28T17:40:17;6.40;47.93
66035;HTU21D;52805;51.074;5.842;2023-02-28T17:42:43;6.45;49.82
66035;HTU21D;52805;51.074;5.842;2023-02-28T17:45:10;6.56;49.33
66035;HTU21D;52805;51.074;5.842;2023-02-28T17:47:36;6.56;48.92
66035;HTU21D;52805;51.074;5.842;2023-02-28T17:50:03;6.53;48.73
66035;HTU21D;52805;51.074;5.842;2023-02-28T17:52:29;6.48;48.69
66035;HTU21D;52805;51.074;5.842;2023-02-28T17:54:55;6.41;48.80
66035;HTU21D;52805;51.074;5.842;2023-02-28T17:57:20;6.33;48.92
66035;HTU21D;52805;51.074;5.842;2023-02-28T17:59:46;6.29;49.09
66035;HTU21D;52805;51.074;5.842;2023-02-28T18:02:13;6.24;49.15
66035;HTU21D;52805;51.074;5.842;2023-02-28T18:04:39;6.17;49.29
66035;HTU21D;52805;51.074;5.842;2023-02-28T18:07:06;6.14;49.43
66035;HTU21D;52805;51.074;5.842;2023-02-28T18:09:32;6.08;49.60
66035;HTU21D;52805;51.074;5.842;2023-02-28T18:11:58;6.07;49.63
66035;HTU21D;52805;51.074;5.842;2023-02-28T18:14:25;6.01;49.79
66035;HTU21D;52805;51.074;5.842;2023-02-28T18:16:52;5.97;49.94
66035;HTU21D;52805;51.074;5.842;2023-02-28T18:19:18;5.93;50.10
66035;HTU21D;52805;51.074;5.842;2023-02-28T18:21:48;5.91;50.19
66035;HTU21D;52805;51.074;5.842;2023-02-28T18:24:16;5.90;50.30